Hobgood, North Carolina
Current Conditions -  °F | °C
As of 1:36 AM on Monday 22 Dec 2014 (Local Time) from KETC Reporting Station
Overcast Overcast  
Wind Chill: 34°   Ceiling: 3800
Heat Index: 39°   Visibility: 10mi
Dew Point: 34°   Wind: 7mph
Humidity: 81%   Direction: 30°NNE
Pressure: 30.22"   Gusts: NA
Location:  36.03°N, 77.4°W
Report Text: KETC 220636Z AUTO 03006KT 10SM OVC038 04/01 A3022 RMK AO2
Loading
Personal Weather Stations






























Interactive Weather Map New forecast layout! Learn more

10-Day Weather Forecast

Advertisements
Track Severe Weather on mobile